createdAt,value
2018-11-01T00:00:24.339Z,99833.77
2018-11-01T00:04:31.349Z,99840.36
2018-11-01T00:08:38.041Z,99840.11
2018-11-01T00:12:45.228Z,99829.58
2018-11-01T00:16:51.946Z,99841.08
2018-11-01T00:20:58.593Z,99837.94
2018-11-01T00:25:05.565Z,99826.09
2018-11-01T00:29:12.107Z,99820.48
2018-11-01T00:33:18.925Z,99817.39
2018-11-01T00:37:25.617Z,99817.27
2018-11-01T00:41:32.261Z,99819.52
2018-11-01T00:45:38.992Z,99816.20
2018-11-01T00:49:46.101Z,99821.80
2018-11-01T00:53:52.835Z,99833.09
2018-11-01T00:57:59.489Z,99840.48
2018-11-01T01:02:06.829Z,99848.97
2018-11-01T01:06:13.514Z,99844.52
2018-11-01T01:10:20.179Z,99833.18
2018-11-01T01:14:27.021Z,99832.93
2018-11-01T01:18:33.814Z,99827.20
2018-11-01T01:22:41.050Z,99829.11
2018-11-01T01:26:49.034Z,99821.94
2018-11-01T01:30:55.691Z,99827.07
2018-11-01T01:35:02.599Z,99819.90
2018-11-01T01:39:11.125Z,99817.73
2018-11-01T01:43:17.825Z,99820.62
2018-11-01T01:47:24.522Z,99818.70
2018-11-01T01:51:31.239Z,99832.93
2018-11-01T01:55:38.019Z,99839.67
2018-11-01T01:59:44.712Z,99820.77
2018-11-01T02:03:51.493Z,99805.66
2018-11-01T02:07:58.102Z,99796.45
2018-11-01T02:12:04.816Z,99795.62
2018-11-01T02:16:11.738Z,99783.89
2018-11-01T02:20:19.575Z,99777.41
2018-11-01T02:24:26.270Z,99777.67
2018-11-01T02:28:32.952Z,99765.36
2018-11-01T02:32:39.950Z,99753.27
2018-11-01T02:36:46.627Z,99768.70
2018-11-01T02:40:53.340Z,99759.50
2018-11-01T02:45:00.039Z,99768.45
2018-11-01T02:49:07.403Z,99774.56
2018-11-01T02:53:14.058Z,99771.81
2018-11-01T02:57:20.968Z,99760.22
2018-11-01T03:01:27.672Z,99760.56
2018-11-01T03:05:34.321Z,99759.63
2018-11-01T03:09:40.982Z,99746.94
2018-11-01T03:13:47.761Z,99750.54
2018-11-01T03:17:54.501Z,99734.86
2018-11-01T03:22:01.251Z,99732.85
2018-11-01T03:26:07.941Z,99736.42
2018-11-01T03:30:14.775Z,99734.05
2018-11-01T03:34:21.390Z,99724.24
2018-11-01T03:38:28.406Z,99713.59
2018-11-01T03:42:35.014Z,99712.03
2018-11-01T03:46:42.555Z,99710.50
2018-11-01T03:50:49.248Z,99721.36
2018-11-01T03:54:56.015Z,99710.49
2018-11-01T03:59:02.713Z,99708.34
2018-11-01T04:03:09.487Z,99700.44
2018-11-01T04:07:16.295Z,99706.54
2018-11-01T04:11:22.989Z,99709.16
2018-11-01T04:15:29.806Z,99713.55
2018-11-01T04:19:36.497Z,99705.08
2018-11-01T04:23:43.215Z,99706.02
2018-11-01T04:27:49.900Z,99696.72
2018-11-01T04:31:56.611Z,99690.26
2018-11-01T04:36:03.478Z,99693.34
2018-11-01T04:40:10.766Z,99715.41
2018-11-01T04:44:17.451Z,99703.45
2018-11-01T04:48:24.185Z,99703.58
2018-11-01T04:52:30.917Z,99701.20
2018-11-01T04:56:37.633Z,99687.80
2018-11-01T05:00:44.348Z,99710.49
2018-11-01T05:04:51.050Z,99694.48
2018-11-01T05:08:57.719Z,99683.25
2018-11-01T05:13:05.541Z,99672.26
2018-11-01T05:17:12.320Z,99668.19
2018-11-01T05:21:18.920Z,99664.71
2018-11-01T05:25:25.646Z,99659.39
2018-11-01T05:29:32.339Z,99661.27
2018-11-01T05:33:38.952Z,99668.66
2018-11-01T05:37:45.679Z,99663.93
2018-11-01T05:41:52.419Z,99667.37
2018-11-01T05:45:59.630Z,99676.56
2018-11-01T05:50:06.547Z,99679.33
2018-11-01T05:54:14.015Z,99676.48
2018-11-01T05:58:20.880Z,99691.77
2018-11-01T06:02:34.555Z,99686.77
2018-11-01T06:06:41.795Z,99688.80
2018-11-01T06:10:48.551Z,99697.14
2018-11-01T06:14:55.172Z,99690.25
2018-11-01T06:19:01.856Z,99680.81
2018-11-01T06:23:08.850Z,99678.82
2018-11-01T06:27:15.487Z,99677.38
2018-11-01T06:31:22.190Z,99661.94
2018-11-01T06:35:33.947Z,99655.88
2018-11-01T06:39:40.673Z,99657.78
2018-11-01T06:43:47.410Z,99667.84
2018-11-01T06:47:56.722Z,99670.93
2018-11-01T06:52:03.508Z,99672.72
2018-11-01T06:56:10.235Z,99671.06
2018-11-01T07:00:17.315Z,99672.00
2018-11-01T07:04:24.327Z,99671.15
2018-11-01T07:08:33.049Z,99675.59
2018-11-01T07:12:42.945Z,99687.05
2018-11-01T07:16:50.345Z,99674.02
2018-11-01T07:20:58.377Z,99671.27
2018-11-01T07:25:05.395Z,99666.98
2018-11-01T07:29:12.147Z,99660.29
2018-11-01T07:33:18.983Z,99644.64
2018-11-01T07:37:33.225Z,99650.63
2018-11-01T07:41:43.300Z,99649.91
2018-11-01T07:45:50.810Z,99645.95
2018-11-01T07:49:57.772Z,99643.80
2018-11-01T07:54:04.618Z,99641.64
2018-11-01T07:58:11.347Z,99634.13
2018-11-01T08:02:18.317Z,99635.70
2018-11-01T08:06:25.072Z,99632.69
2018-11-01T08:10:31.881Z,99640.23
2018-11-01T08:14:38.891Z,99634.25
2018-11-01T08:18:45.539Z,99642.72
2018-11-01T08:22:52.233Z,99642.59
2018-11-01T08:26:58.915Z,99634.69
2018-11-01T08:31:05.702Z,99639.54
2018-11-01T08:35:12.790Z,99630.43
2018-11-01T08:39:19.645Z,99624.22
2018-11-01T08:43:26.423Z,99638.70
2018-11-01T08:47:33.075Z,99650.81
2018-11-01T08:51:39.746Z,99640.06
2018-11-01T08:55:46.428Z,99650.34
2018-11-01T08:59:53.161Z,99634.30
2018-11-01T09:03:59.908Z,99635.74
2018-11-01T09:08:06.879Z,99626.53
2018-11-01T09:12:13.661Z,99638.36
2018-11-01T09:16:20.389Z,99636.73
2018-11-01T09:20:27.083Z,99644.20
2018-11-01T09:24:33.790Z,99650.73
2018-11-01T09:28:40.618Z,99658.61
2018-11-01T09:32:47.446Z,99660.08
2018-11-01T09:36:54.061Z,99675.08
2018-11-01T09:41:00.749Z,99680.33
2018-11-01T09:45:07.916Z,99678.84
2018-11-01T09:49:14.610Z,99666.56
2018-11-01T09:53:21.291Z,99675.25
2018-11-01T09:57:27.990Z,99666.16
2018-11-01T10:01:34.691Z,99670.80
2018-11-01T10:05:41.428Z,99685.88
2018-11-01T10:09:48.130Z,99689.38
2018-11-01T10:13:54.794Z,99702.43
2018-11-01T10:18:01.981Z,99715.20
2018-11-01T10:22:08.435Z,99725.20
2018-11-01T10:26:15.060Z,99702.46
2018-11-01T10:30:23.787Z,99692.05
2018-11-01T10:34:30.601Z,99668.72
2018-11-01T10:38:37.176Z,99667.98
2018-11-01T10:42:43.883Z,99680.56
2018-11-01T10:46:50.561Z,99676.09
2018-11-01T10:50:57.877Z,99681.64
2018-11-01T10:55:04.557Z,99675.33
2018-11-01T10:59:11.270Z,99655.70
2018-11-01T11:03:17.985Z,99655.08
2018-11-01T11:07:25.120Z,99650.30
2018-11-01T11:11:31.826Z,99648.63
2018-11-01T11:15:38.511Z,99650.47
2018-11-01T11:19:45.304Z,99614.38
2018-11-01T11:23:52.043Z,99588.56
2018-11-01T11:27:58.716Z,99581.37
2018-11-01T11:32:05.421Z,99577.00
2018-11-01T11:36:12.096Z,99577.94
2018-11-01T11:40:19.126Z,99571.80
2018-11-01T11:44:25.941Z,99589.05
2018-11-01T11:48:32.637Z,99597.28
2018-11-01T11:52:39.252Z,99597.65
2018-11-01T11:56:46.131Z,99588.63
2018-11-01T12:00:52.799Z,99569.52
2018-11-01T12:04:59.633Z,99548.84
2018-11-01T12:09:08.261Z,99537.52
2018-11-01T12:13:14.883Z,99522.08
2018-11-01T12:17:21.672Z,99563.98
2018-11-01T12:21:28.375Z,99578.66
2018-11-01T12:25:35.210Z,99620.06
2018-11-01T12:29:44.113Z,99621.11
2018-11-01T12:33:50.783Z,99623.84
2018-11-01T12:37:57.536Z,99609.23
2018-11-01T12:42:04.390Z,99608.87
2018-11-01T12:46:10.970Z,99621.77
2018-11-01T12:50:17.719Z,99637.19
2018-11-01T12:54:24.702Z,99645.02
2018-11-01T12:58:31.385Z,99650.63
2018-11-01T13:02:38.264Z,99674.77
2018-11-01T13:06:44.926Z,99673.97
2018-11-01T13:10:51.780Z,99675.27
2018-11-01T13:14:58.888Z,99675.09
2018-11-01T13:19:06.189Z,99696.06
2018-11-01T13:23:12.841Z,99697.63
2018-11-01T13:27:22.254Z,99696.97
2018-11-01T13:31:28.928Z,99703.19
2018-11-01T13:35:35.656Z,99701.81
2018-11-01T13:39:42.370Z,99696.86
2018-11-01T13:43:49.038Z,99695.66
2018-11-01T13:47:55.839Z,99699.67
2018-11-01T13:52:02.469Z,99696.21
2018-11-01T13:56:09.161Z,99710.06
2018-11-01T14:00:16.658Z,99704.14
2018-11-01T14:04:23.331Z,99711.30
2018-11-01T14:08:30.867Z,99721.10
2018-11-01T14:12:37.727Z,99719.39
2018-11-01T14:16:44.439Z,99712.19
2018-11-01T14:20:51.511Z,99730.40
2018-11-01T14:24:58.486Z,99726.72
2018-11-01T14:33:11.917Z,99720.20
2018-11-01T14:37:39.659Z,99721.58
2018-11-01T14:41:46.513Z,99721.16
2018-11-01T14:45:53.197Z,99728.59
2018-11-01T14:50:00.196Z,99727.91
2018-11-01T14:54:07.832Z,99717.45
2018-11-01T14:58:14.881Z,99747.31
2018-11-01T15:02:20.322Z,99743.97
2018-11-01T15:06:27.387Z,99741.61
2018-11-01T15:10:34.115Z,99742.01
2018-11-01T15:14:41.992Z,99704.28
2018-11-01T15:18:48.725Z,99704.41
2018-11-01T15:22:55.501Z,99725.04
2018-11-01T15:27:02.648Z,99728.72
2018-11-01T15:31:12.187Z,99728.27
2018-11-01T15:35:18.935Z,99723.12
2018-11-01T15:39:26.084Z,99717.31
2018-11-01T15:43:38.673Z,99714.03
2018-11-01T15:47:45.432Z,99720.13
2018-11-01T15:51:52.321Z,99710.77
2018-11-01T15:55:59.385Z,99714.39
2018-11-01T16:00:07.606Z,99708.72
2018-11-01T16:04:14.399Z,99720.90
2018-11-01T16:08:21.270Z,99728.12
2018-11-01T16:12:28.010Z,99729.63
2018-11-01T16:16:35.042Z,99727.69
2018-11-01T16:20:41.733Z,99733.19
2018-11-01T16:24:48.483Z,99753.44
2018-11-01T16:28:55.298Z,99753.44
2018-11-01T16:33:02.126Z,99747.72
2018-11-01T16:37:08.889Z,99750.09
2018-11-01T16:41:15.801Z,99748.87
2018-11-01T16:45:22.582Z,99749.66
2018-11-01T16:49:29.367Z,99757.70
2018-11-01T16:53:36.169Z,99760.84
2018-11-01T16:57:42.987Z,99761.86
2018-11-01T17:01:49.777Z,99749.69
2018-11-01T17:05:56.512Z,99754.82
2018-11-01T17:10:04.015Z,99768.20
2018-11-01T17:14:11.412Z,99767.88
2018-11-01T17:18:18.347Z,99789.59
2018-11-01T17:22:25.037Z,99792.80
2018-11-01T17:26:31.988Z,99809.38
2018-11-01T17:30:38.793Z,99828.64
2018-11-01T17:34:45.514Z,99832.27
2018-11-01T17:38:52.444Z,99832.87
2018-11-01T17:42:59.285Z,99833.23
2018-11-01T17:47:05.976Z,99833.61
2018-11-01T17:51:12.837Z,99829.16
2018-11-01T17:55:19.634Z,99851.69
2018-11-01T17:59:26.276Z,99868.69
2018-11-01T18:03:33.010Z,99870.39
2018-11-01T18:07:40.544Z,99870.27
2018-11-01T18:11:47.305Z,99872.78
2018-11-01T18:15:54.152Z,99870.99
2018-11-01T18:20:00.882Z,99868.23
2018-11-01T18:24:07.674Z,99864.53
2018-11-01T18:28:14.469Z,99868.84
2018-11-01T18:32:21.227Z,99872.32
2018-11-01T18:36:28.039Z,99886.93
2018-11-01T18:40:34.799Z,99889.08
2018-11-01T18:44:41.672Z,99897.67
2018-11-01T18:48:50.907Z,99897.06
2018-11-01T18:52:58.161Z,99908.00
2018-11-01T18:57:04.999Z,99907.40
2018-11-01T19:01:11.884Z,99914.45
2018-11-01T19:09:42.417Z,99920.62
2018-11-01T19:13:44.815Z,99932.81
2018-11-01T19:17:52.073Z,99926.00
2018-11-01T19:21:59.043Z,99928.03
2018-11-01T19:26:06.406Z,99929.81
2018-11-01T19:30:20.973Z,99944.41
2018-11-01T19:34:40.254Z,99953.97
2018-11-01T19:38:57.441Z,99938.74
2018-11-01T19:43:45.038Z,99942.57
2018-11-01T19:48:42.393Z,99937.22
2018-11-01T19:52:49.354Z,99946.77
2018-11-01T19:56:56.182Z,99964.53
2018-11-01T20:01:02.945Z,99968.80
2018-11-01T20:05:11.022Z,99980.44
2018-11-01T20:09:18.491Z,99974.30
2018-11-01T20:13:29.550Z,99984.84
2018-11-01T20:17:36.244Z,100000.95
2018-11-01T20:21:44.234Z,100014.09
2018-11-01T20:25:56.689Z,100025.11
2018-11-01T20:30:14.266Z,100027.13
2018-11-01T20:34:24.643Z,100037.33
2018-11-01T20:38:35.298Z,100043.41
2018-11-01T20:42:43.511Z,100029.70
2018-11-01T20:46:50.409Z,100029.83
2018-11-01T20:50:57.279Z,100052.52
2018-11-01T20:55:04.102Z,100049.77
2018-11-01T20:59:13.348Z,100038.24
2018-11-01T21:03:20.496Z,100047.21
2018-11-01T21:07:27.329Z,100045.00
2018-11-01T21:11:34.294Z,100042.92
2018-11-01T21:15:42.159Z,100033.87
2018-11-01T21:19:49.080Z,100039.45
2018-11-01T21:23:55.885Z,100047.95
2018-11-01T21:28:02.533Z,100042.85
2018-11-01T21:32:10.015Z,100056.88
2018-11-01T21:36:16.797Z,100061.16
2018-11-01T21:40:23.539Z,100061.66
2018-11-01T21:44:30.322Z,100057.72
2018-11-01T21:48:37.079Z,100064.56
2018-11-01T21:52:43.915Z,100078.61
2018-11-01T21:56:50.563Z,100071.60
2018-11-01T22:00:57.270Z,100069.39
2018-11-01T22:05:04.030Z,100065.53
2018-11-01T22:09:10.763Z,100063.59
2018-11-01T22:13:17.462Z,100063.56
2018-11-01T22:17:24.231Z,100062.59
2018-11-01T22:21:31.244Z,100070.64
2018-11-01T22:25:37.947Z,100063.63
2018-11-01T22:29:44.749Z,100070.37
2018-11-01T22:33:51.496Z,100079.98
2018-11-01T22:37:58.208Z,100083.32
2018-11-01T22:42:07.471Z,100090.38
2018-11-01T22:46:14.227Z,100092.53
2018-11-01T22:50:20.953Z,100090.26
2018-11-01T22:54:27.679Z,100085.08
2018-11-01T22:58:34.402Z,100071.09
2018-11-01T23:02:41.278Z,100071.80
2018-11-01T23:06:48.129Z,100055.38
2018-11-01T23:10:54.741Z,100051.78
2018-11-01T23:15:01.515Z,100060.13
2018-11-01T23:19:08.329Z,100062.72
2018-11-01T23:23:15.113Z,100060.00
2018-11-01T23:27:21.829Z,100063.13
2018-11-01T23:31:28.540Z,100078.80
2018-11-01T23:35:35.315Z,100088.47
2018-11-01T23:39:59.264Z,100087.81
2018-11-01T23:44:23.479Z,100085.34
2018-11-01T23:48:28.964Z,100101.27
2018-11-01T23:52:35.672Z,100115.45
2018-11-01T23:56:42.485Z,100122.16
